• Join FlightAware (Why Join?)
  • Login
  • US Flag 
02:26PM EST


 

Airport Tracker/Info


-or-


 

Live Flight TrackerFlight Track Log ✈ QLK109D ✈ 04-Jul-2013 ✈ YCFS - YSSY / SYD

Flight Track Log - Related Links

Times and Time Zones

All times are in EDT time to prevent confusion due to time zone crossing. See the QLK109D flight status page for this flight to view local times or setup timezone preferences in your user account.

Time Position Orientation Groundspeed Altitude Reporting Facility
EDT Latitude Longitude Course Direction KTS MPH feet Rate Location/Type
11:31PM -30.3122 153.1172 208° Southwest 22,000  Level Aus ATC (Calculated)
11:31PM -30.3595 153.0791 202° Southwest 22,000 -3,300 Level Aus ATC (Calculated)
11:32PM -30.3595 153.0791 202° Southwest 22,000 -3,660 Level Aus ATC (Calculated)
11:32PM -30.4542 153.0028 46° Northeast 22,000 -4,200 Level Aus ATC (Calculated)
11:33PM -30.3926 153.0524 215° Southwest  Level FlightAware Approximate
11:34PM -30.5502 152.9251 215° Southwest  Level FlightAware Approximate
11:34PM -30.5015 152.9646 41° Northeast 22,000  Level Aus ATC (Calculated)
11:34PM -30.5488 152.9263 39° Northeast 22,000 -12,420 Level Aus ATC (Calculated)
11:35PM -30.4115 153.0548 215° Southwest 236 272 8,400 -9,420 Descending Aus ATC (RADAR)
11:35PM -30.4385 153.0211 227° Southwest 241 277 9,800 2,400 Climbing Aus ATC (RADAR)
11:36PM -30.4718 152.9926 216° Southwest 249 287 11,200 2,160 Climbing Aus ATC (RADAR)
11:37PM -30.5217 152.9525 215° Southwest 263 303 12,900 1,920 Climbing Aus ATC (RADAR)
11:38PM -30.5837 152.9043 214° Southwest 266 306 14,800 1,740 Climbing Aus ATC (RADAR)
11:39PM -30.6334 152.8690 211° Southwest 275 316 16,000 1,380 Climbing Aus ATC (RADAR)
11:40PM -30.6957 152.8179 215° Southwest 275 316 17,300 1,320 Climbing Aus ATC (RADAR)
11:40PM -30.7428 152.7785 216° Southwest 279 321 18,400 1,800 Climbing Aus ATC (RADAR)
11:41PM -30.7843 152.7467 213° Southwest 268 308 19,900 2,100 Climbing Aus ATC (RADAR)
11:42PM -30.8298 152.7085 216° Southwest 244 281 21,600 1,740 Climbing Aus ATC (RADAR)
11:43PM -30.8818 152.6648 216° Southwest 228 262 23,100 1,380 Climbing Aus ATC (RADAR)
11:44PM -30.9182 152.6330 217° Southwest 220 253 24,100 540 Climbing Aus ATC (RADAR)
11:45PM -30.9744 152.5863 215° Southwest 256 295 24,100  Level Aus ATC (RADAR)
11:45PM -31.0278 152.5426 215° Southwest 284 327 24,100  Level Aus ATC (RADAR)
11:46PM -31.0679 152.5099 215° Southwest 301 346 24,100  Level Aus ATC (RADAR)
11:47PM -31.1336 152.4558 215° Southwest 319 367 24,100  Level Aus ATC (RADAR)
11:48PM -31.1939 152.4047 216° Southwest 324 373 24,100  Level Aus ATC (RADAR)
11:49PM -31.2794 152.3335 215° Southwest 324 373 24,100  Level Aus ATC (RADAR)
11:50PM -31.3533 152.2727 215° Southwest 326 375 24,100  Level Aus ATC (RADAR)
11:50PM -31.3959 152.2365 216° Southwest 325 374 24,100  Level Aus ATC (RADAR)
11:51PM -31.4387 152.2005 216° Southwest 325 374 24,100  Level Aus ATC (RADAR)
11:52PM -31.5003 152.1494 215° Southwest 326 375 24,100  Level Aus ATC (RADAR)
11:53PM -31.5733 152.0881 216° Southwest 321 369 24,100  Level Aus ATC (RADAR)
11:54PM -31.6508 152.0231 215° Southwest 318 366 24,100  Level Aus ATC (RADAR)
11:55PM -31.7113 151.9722 216° Southwest 317 365 24,100  Level Aus ATC (RADAR)
11:56PM -31.7714 151.9218 215° Southwest 312 359 24,100  Level Aus ATC (RADAR)
11:56PM -31.8133 151.8866 216° Southwest 312 359 24,100  Level Aus ATC (RADAR)
11:57PM -31.8671 151.8408 216° Southwest 314 361 24,100 -60 Level Aus ATC (RADAR)
11:58PM -31.9412 151.7786 215° Southwest 321 369 24,000 -60 Descending Aus ATC (RADAR)
11:59PM -32.0060 151.7237 216° Southwest 316 364 24,000  Level Aus ATC (RADAR)
12:00AM -32.0786 151.6621 216° Southwest 318 366 24,000  Level Aus ATC (RADAR)
12:01AM -32.1401 151.6103 215° Southwest 321 369 24,000  Level Aus ATC (RADAR)
12:01AM -32.1884 151.5688 216° Southwest 318 366 24,000  Level Aus ATC (RADAR)
12:02AM -32.2426 151.5228 216° Southwest 316 364 24,000  Level Aus ATC (RADAR)
12:03AM -32.3144 151.4608 216° Southwest 317 365 24,000  Level Aus ATC (RADAR)
12:04AM -32.3881 151.3983 216° Southwest 323 372 24,000  Level Aus ATC (RADAR)
12:05AM -32.4623 151.3355 216° Southwest 324 373 24,000  Level Aus ATC (RADAR)
12:06AM -32.5358 151.2724 216° Southwest 321 369 24,000  Level Aus ATC (RADAR)
12:07AM -32.5876 151.2502 200° South 332 382 24,000  Level Aus ATC (RADAR)
12:07AM -32.6746 151.2506 180° South 368 423 24,000 -120 Level Aus ATC (RADAR)
12:08AM -32.7348 151.2486 182° South 372 428 23,900 -1,500 Descending Aus ATC (RADAR)
12:09AM -32.8388 151.2419 183° South 359 413 21,700 -2,100 Descending Aus ATC (RADAR)
12:10AM -32.9433 151.2374 182° South 369 425 19,700 -2,040 Descending Aus ATC (RADAR)
12:11AM -33.0055 151.2336 183° South 374 430 18,500 -2,100 Descending Aus ATC (RADAR)
12:11AM -33.0662 151.2293 183° South 370 426 17,300 -1,980 Descending Aus ATC (RADAR)
12:12AM -33.1517 151.2245 183° South 365 420 15,800 -1,680 Descending Aus ATC (RADAR)
12:13AM -33.2540 151.2197 182° South 362 417 14,300 -1,560 Descending Aus ATC (RADAR)
12:14AM -33.3374 151.2148 183° South 353 406 13,000 -1,560 Descending Aus ATC (RADAR)
12:15AM -33.4445 151.2092 182° South 345 397 11,400 -1,440 Descending Aus ATC (RADAR)
12:16AM -33.5231 151.2041 183° South 326 375 10,300 -1,380 Descending Aus ATC (RADAR)
12:16AM -33.5740 151.2014 183° South 308 354 9,500 -1,020 Descending Aus ATC (RADAR)
12:17AM -33.6592 151.1979 182° South 299 344 8,700 -660 Descending Aus ATC (RADAR)
12:18AM -33.7356 151.1926 183° South 295 339 8,300 -540 Descending Aus ATC (RADAR)
12:20AM -33.8656 151.2230 169° South 309 356 7,400 -540 Descending Aus ATC (RADAR)
12:21AM -33.9271 151.2680 149° Southeast 296 341 7,000 -540 Descending Aus ATC (RADAR)
12:22AM -33.9803 151.3054 150° Southeast 285 328 6,600 -600 Descending Aus ATC (RADAR)
12:22AM -34.0318 151.3319 157° South 257 296 6,100 -720 Descending Aus ATC (RADAR)
12:23AM -34.0797 151.3586 155° Southeast 247 284 5,600 -720 Descending Aus ATC (RADAR)
12:24AM -34.1414 151.3894 158° South 226 260 4,900 -600 Descending Aus ATC (RADAR)
12:25AM -34.1751 151.3717 203° Southwest 208 239 4,600 -420 Descending Aus ATC (RADAR)
12:25AM -34.1814 151.3349 258° West 189 217 4,400 -480 Descending Aus ATC (RADAR)
12:26AM -34.1510 151.2956 313° West 174 200 3,900 -780 Descending Aus ATC (RADAR)
12:27AM -34.1202 151.2624 318° Northwest 175 201 3,100 -960 Descending Aus ATC (RADAR)
12:28AM -34.0864 151.2281 320° Northwest 169 194 2,300 -900 Descending Aus ATC (RADAR)
12:29AM -34.0442 151.2132 344° North 165 190 1,500 -900 Descending Aus ATC (RADAR)
12:29AM -34.0249 151.2078 347° North 141 162 1,100 -720 Descending Aus ATC (RADAR)
12:30AM -33.9906 151.1991 348° North 127 146 500 -540 Descending Aus ATC (RADAR)
12:31AM -33.9601 151.1909 348° North 121 139 100 -480 Descending Aus ATC (RADAR)